Latest Weather Observations for Cummins Airport

IDS60801

Issued at 9:31 am CDT Sunday 19 November 2017 (issued every 30 minutes, with the page automatically refreshed every 10 minutes)

About weather observations | Map of weather stations | Latest weather observations for SA | Other Formats
Station Details ID: 018217 Name: CUMMINS AERO Lat: -34.25 Lon: 135.71 Height: 60.11 m
Data from the previous 72 hours. | See also: Recent months at Cummins Airport
Date/Time
CDT
Temp
°C
App
Temp
°C
Dew
Point
°C
Rel
Hum
%
Delta-T
°C
Wind Press
QNH
hPa
Press
MSL
hPa
Rain since
9am
mm
Dir  Spd
km/h
Gust
km/h
Spd
kts
Gust
kts
19/09:30am 23.1 21.8 14.9 60 4.9 ENE 15 20 8 11 1014.5 1014.3 0.0
19/09:00am 21.0 19.1 15.3 70 3.4 ENE 19 24 10 13 1014.3 1014.1 0.0
19/08:30am 19.6 18.4 16.1 80 2.1 E 17 24 9 13 1014.4 1014.2 0.0
19/08:00am 18.4 17.3 16.4 88 1.2 ESE 17 22 9 12 1014.2 1014.0 0.0
19/07:30am 16.9 16.1 16.1 95 0.5 ESE 15 22 8 12 1013.7 1013.5 0.0
19/07:00am 16.2 15.6 15.6 96 0.4 ESE 13 19 7 10 1014.0 1013.8 0.0
19/06:30am 15.5 16.0 15.0 97 0.3 SE 6 9 3 5 1014.1 1013.9 0.0
19/06:00am 15.8 15.6 15.6 99 0.1 SE 11 22 6 12 1013.7 1013.5 0.0
19/05:30am 15.7 13.8 15.7 100 0.0 ESE 20 30 11 16 1012.5 1012.3 0.0
19/05:00am 15.6 14.2 15.6 100 0.0 ESE 17 24 9 13 1012.5 1012.3 0.0
19/04:30am 15.5 13.7 15.5 100 0.0 ESE 19 24 10 13 1012.6 1012.4 0.0
19/04:00am 15.6 13.8 15.6 100 0.0 ESE 19 26 10 14 1012.8 1012.6 0.0
19/03:30am 15.2 13.7 15.2 100 0.0 ESE 17 22 9 12 1012.9 1012.7 0.0
19/03:00am 15.2 14.1 15.2 100 0.0 ESE 15 20 8 11 1013.0 1012.8 0.0
19/02:30am 14.6 14.3 14.3 98 0.2 E 9 15 5 8 1013.5 1013.3 0.0
19/02:00am 14.5 14.0 13.9 96 0.3 E 9 15 5 8 1013.6 1013.4 0.0
19/01:30am 14.7 14.6 13.9 95 0.4 ESE 7 11 4 6 1013.7 1013.5 0.0
19/01:00am 15.2 14.0 13.9 92 0.7 ESE 13 19 7 10 1014.0 1013.8 0.0
19/12:30am 15.4 14.1 13.8 90 0.9 E 13 17 7 9 1013.9 1013.7 0.0
19/12:00am 15.5 14.7 13.0 85 1.4 E 9 13 5 7 1013.8 1013.6 0.0
 
Date/Time
CDT
Temp
°C
App
Temp
°C
Dew
Point
°C
Rel
Hum
%
Delta-T
°C
Wind Press
QNH
hPa
Press
MSL
hPa
Rain since
9am
mm
Dir  Spd
km/h
Gust
km/h
Spd
kts
Gust
kts
18/11:30pm 16.4 14.7 13.5 83 1.6 E 15 19 8 10 1013.8 1013.6 0.0
18/11:00pm 15.9 15.5 12.5 80 1.9 ENE 6 9 3 5 1014.2 1014.0 0.0
18/10:30pm 16.8 16.8 12.5 76 2.4 E 4 7 2 4 1014.3 1014.1 0.0
18/10:00pm 17.2 17.2 12.3 73 2.7 ESE 4 9 2 5 1014.1 1013.9 0.0
18/09:30pm 17.8 16.8 12.3 70 3.1 ESE 9 15 5 8 1014.0 1013.8 0.0
18/09:00pm 18.3 16.5 12.1 67 3.4 ESE 13 20 7 11 1013.9 1013.7 0.0
18/08:30pm 18.8 16.6 12.1 65 3.7 ESE 15 20 8 11 1013.7 1013.5 0.0
18/08:00pm 19.6 16.6 11.9 61 4.3 ESE 19 28 10 15 1013.7 1013.5 0.0
18/07:30pm 21.0 16.3 11.9 56 5.1 ESE 28 43 15 23 1013.3 1013.1 0.0
18/07:00pm 22.0 17.0 11.1 50 6.0 ESE 28 35 15 19 1013.2 1013.0 0.0
18/06:30pm 22.5 16.7 10.9 48 6.4 ESE 32 44 17 24 1013.0 1012.8 0.0
18/06:00pm 23.5 18.5 10.9 45 7.0 ESE 28 39 15 21 1013.2 1013.0 0.0
18/05:30pm 24.4 19.8 11.0 43 7.5 ESE 26 37 14 20 1013.3 1013.1 0.0
18/05:00pm 24.5 19.3 10.4 41 7.8 ESE 28 33 15 18 1013.3 1013.1 0.0
18/04:30pm 25.3 20.2 10.7 40 8.2 SE 28 35 15 19 1013.2 1013.0 0.0
18/04:00pm 26.6 22.3 10.7 37 9.0 SE 24 33 13 18 1013.3 1013.1 0.0
18/03:30pm 27.4 24.0 10.6 35 9.5 ESE 19 32 10 17 1013.6 1013.4 0.0
18/03:00pm 27.1 24.4 10.3 35 9.4 ESE 15 24 8 13 1014.0 1013.8 0.0
18/02:30pm 27.2 23.7 10.8 36 9.3 E 20 30 11 16 1014.2 1014.0 0.0
18/02:00pm 26.8 23.6 10.1 35 9.3 E 17 28 9 15 1014.3 1014.1 0.0
18/01:30pm 26.6 24.0 9.5 34 9.4 NE 13 22 7 12 1014.6 1014.4 0.0
18/01:00pm 26.0 23.1 9.8 36 9.0 E 15 24 8 13 1014.8 1014.6 0.0
18/12:30pm 26.4 23.6 10.1 36 9.1 ENE 15 26 8 14 1014.6 1014.4 0.0
18/12:00pm 25.2 22.9 10.3 39 8.3 ENE 13 26 7 14 1014.8 1014.6 0.0
18/11:30am 24.2 22.0 10.8 43 7.5 ENE 13 22 7 12 1014.9 1014.7 0.0
18/11:00am 23.3 20.9 11.4 47 6.7 ENE 15 20 8 11 1015.3 1015.1 0.0
18/10:30am 22.1 20.2 11.8 52 5.8 E 13 20 7 11 1015.5 1015.3 0.0
18/10:00am 20.6 17.8 11.5 56 5.0 ENE 17 26 9 14 1015.4 1015.2 0.0
18/09:30am 20.2 17.9 11.9 59 4.6 ENE 15 20 8 11 1015.8 1015.6 0.0
18/09:00am 18.6 16.7 11.9 65 3.7 ENE 13 20 7 11 1015.7 1015.5 0.0
18/08:30am 17.4 15.1 11.7 69 3.1 ENE 15 22 8 12 1015.8 1015.6 0.0
18/08:00am 16.2 14.9 12.6 79 2.0 E 11 17 6 9 1015.7 1015.5 0.0
18/07:30am 15.4 14.5 12.7 84 1.5 ENE 9 13 5 7 1015.9 1015.8 0.0
18/07:00am 15.1 14.3 13.0 87 1.2 NE 9 15 5 8 1015.4 1015.2 0.0
18/06:30am 15.0 13.8 12.9 87 1.2 NE 11 17 6 9 1015.3 1015.1 0.0
18/06:00am 15.0 13.1 13.0 88 1.1 E 15 20 8 11 1014.5 1014.3 0.0
18/05:30am 15.0 13.9 13.0 88 1.1 ESE 11 17 6 9 1014.5 1014.3 0.0
18/05:00am 14.9 14.5 12.9 88 1.1 E 7 11 4 6 1014.9 1014.7 0.0
18/04:30am 14.9 14.1 12.9 88 1.1 ESE 9 13 5 7 1014.8 1014.6 0.0
18/04:00am 15.0 13.9 13.0 88 1.1 ESE 11 17 6 9 1014.6 1014.4 0.0
18/03:30am 14.8 13.6 12.8 88 1.1 ESE 11 15 6 8 1014.6 1014.4 0.0
18/03:00am 14.9 13.3 12.8 87 1.2 E 13 17 7 9 1014.8 1014.6 0.0
18/02:30am 15.0 13.4 12.9 87 1.2 ESE 13 17 7 9 1015.0 1014.8 0.0
18/02:00am 15.0 14.2 12.9 87 1.2 SE 9 15 5 8 1015.4 1015.2 0.0
18/01:30am 15.3 14.2 13.2 87 1.2 SSE 11 17 6 9 1015.7 1015.5 0.0
18/01:00am 15.3 14.5 13.0 86 1.3 E 9 13 5 7 1015.8 1015.6 0.0
18/12:30am 15.3 13.7 12.8 85 1.4 ESE 13 17 7 9 1016.0 1015.9 0.0
18/12:00am 15.2 12.9 12.9 86 1.3 SE 17 20 9 11 1016.3 1016.2 0.0
 
Date/Time
CDT
Temp
°C
App
Temp
°C
Dew
Point
°C
Rel
Hum
%
Delta-T
°C
Wind Press
QNH
hPa
Press
MSL
hPa
Rain since
9am
mm
Dir  Spd
km/h
Gust
km/h
Spd
kts
Gust
kts
17/11:30pm 15.2 12.4 12.5 84 1.5 SE 19 26 10 14 1016.5 1016.4 0.0
17/11:00pm 15.2 12.7 12.3 83 1.6 SE 17 20 9 11 1017.0 1016.9 0.0
17/10:30pm 15.2 13.4 12.2 82 1.6 SE 13 17 7 9 1017.1 1017.0 0.0
17/10:00pm 15.2 12.7 12.2 82 1.6 SE 17 24 9 13 1016.5 1016.4 0.0
17/09:30pm 15.2 12.6 12.0 81 1.7 SE 17 24 9 13 1016.2 1016.1 0.0
17/09:00pm 15.1 12.4 11.7 80 1.8 SSE 17 26 9 14 1016.2 1016.1 0.0
17/08:30pm 14.9 12.0 11.1 78 2.0 SSE 17 24 9 13 1016.1 1016.0 0.0
17/08:00pm 15.6 12.1 10.8 73 2.6 SE 20 26 11 14 1015.7 1015.5 0.0
17/07:30pm 17.0 13.4 10.6 66 3.4 SSE 20 28 11 15 1015.6 1015.4 0.0
17/07:00pm 18.6 15.5 10.4 59 4.4 S 17 24 9 13 1014.9 1014.7 0.0
17/06:30pm 18.7 14.7 10.5 59 4.4 SSW 22 30 12 16 1015.0 1014.8 0.0
17/06:00pm 19.3 15.2 10.0 55 5.0 S 22 30 12 16 1014.9 1014.7 0.0
17/05:30pm 20.3 16.6 10.1 52 5.5 SSW 20 28 11 15 1015.1 1014.9 0.0
17/05:00pm 20.6 17.4 9.8 50 5.8 S 17 28 9 15 1015.1 1014.9 0.0
17/04:30pm 21.0 16.1 9.9 49 6.0 SSW 26 37 14 20 1015.3 1015.1 0.0
17/04:00pm 21.7 17.8 9.6 46 6.5 SSW 20 33 11 18 1015.4 1015.2 0.0
17/03:30pm 21.0 17.1 9.3 47 6.2 SSW 20 33 11 18 1015.7 1015.5 0.0
17/03:00pm 21.5 17.8 9.4 46 6.5 SSW 19 32 10 17 1015.9 1015.8 0.0
17/02:30pm 22.0 18.5 8.9 43 7.0 SSW 17 30 9 16 1016.3 1016.2 0.0
17/02:00pm 20.5 16.8 7.8 44 6.6 SW 17 28 9 15 1016.4 1016.3 0.0
17/01:30pm 20.4 16.1 7.1 42 6.8 SW 19 28 10 15 1016.4 1016.3 0.0
17/01:00pm 20.6 16.1 6.9 41 7.0 SW 20 30 11 16 1016.8 1016.7 0.0
17/12:30pm 19.1 15.5 6.6 44 6.3 SW 15 32 8 17 1016.9 1016.8 0.0
17/12:00pm 19.1 14.6 5.9 42 6.5 SSW 19 26 10 14 1017.3 1017.2 0.0
17/11:30am 19.2 14.6 6.7 44 6.3 SW 20 26 11 14 1017.3 1017.2 0.0
17/11:00am 17.8 13.5 7.0 49 5.4 SSW 19 26 10 14 1017.7 1017.6 0.0
17/10:30am 16.5 12.4 6.3 51 5.0 SW 17 24 9 13 1017.8 1017.7 0.0
17/10:00am 16.0 11.6 6.4 53 4.7 SSW 19 28 10 15 1018.0 1017.9 0.0
17/09:30am 15.4 12.1 6.2 54 4.4 SSW 13 19 7 10 1018.2 1018.1 0.0
17/09:00am 14.4 10.0 6.5 59 3.8 SSW 19 26 10 14 1018.3 1018.2 0.0
17/08:30am 13.9 9.8 6.3 60 3.6 SSW 17 24 9 13 1018.2 1018.1 0.0
17/08:00am 13.4 9.3 6.3 62 3.4 SSW 17 20 9 11 1018.0 1017.9 0.0
17/07:30am 12.3 10.6 8.2 76 2.0 WSW 7 11 4 6 1017.8 1017.7 0.0
17/07:00am 11.4 11.0 8.1 80 1.6 CALM 0 0 0 0 1017.6 1017.5 0.0
17/06:30am 10.9 10.5 8.1 83 1.4 CALM 0 0 0 0 1017.6 1017.5 0.0
17/06:00am 10.8 10.3 7.7 81 1.5 CALM 0 0 0 0 1017.4 1017.3 0.0
17/05:30am 10.6 10.1 7.7 82 1.4 CALM 0 0 0 0 1017.3 1017.2 0.0
17/05:00am 10.6 10.0 7.5 81 1.5 CALM 0 0 0 0 1017.5 1017.4 0.0
17/04:30am 10.1 9.5 7.3 83 1.3 CALM 0 7 0 4 1017.4 1017.3 0.0
17/04:00am 9.3 7.2 6.7 84 1.2 SW 7 9 4 5 1017.5 1017.4 0.0
17/03:30am 9.4 6.6 6.8 84 1.2 WSW 11 13 6 7 1017.7 1017.6 0.0
17/03:00am 8.9 6.3 6.3 84 1.2 WSW 9 11 5 6 1017.8 1017.7 0.0
17/02:30am 8.9 6.3 6.2 83 1.2 SW 9 11 5 6 1017.7 1017.6 0.0
17/02:00am 8.9 6.7 6.0 82 1.3 WSW 7 9 4 5 1017.9 1017.8 0.0
17/01:30am 10.3 7.7 5.9 74 2.0 S 9 13 5 7 1018.2 1018.1 0.0
17/01:00am 10.2 6.8 5.8 74 2.0 S 13 17 7 9 1018.4 1018.3 0.0
17/12:30am 11.2 7.4 5.9 70 2.5 S 15 17 8 9 1018.7 1018.6 0.0
17/12:00am 11.6 8.2 5.7 67 2.7 S 13 19 7 10 1019.0 1018.9 0.0
 
Date/Time
CDT
Temp
°C
App
Temp
°C
Dew
Point
°C
Rel
Hum
%
Delta-T
°C
Wind Press
QNH
hPa
Press
MSL
hPa
Rain since
9am
mm
Dir  Spd
km/h
Gust
km/h
Spd
kts
Gust
kts
16/11:30pm 12.0 7.4 5.6 65 3.0 S 19 26 10 14 1019.2 1019.1 0.0
16/11:00pm 12.0 7.8 5.9 66 2.9 S 17 22 9 12 1019.4 1019.3 0.0
16/10:30pm 12.1 7.5 5.7 65 3.0 S 19 20 10 11 1019.5 1019.4 0.0
16/10:00pm 12.8 8.2 5.5 61 3.4 S 19 24 10 13 1019.7 1019.6 0.0
16/09:30pm 13.0 8.4 5.7 61 3.4 S 19 30 10 16 1019.7 1019.6 0.0
16/09:00pm 13.2 9.0 5.6 60 3.6 S 17 26 9 14 1019.8 1019.7 0.0
16/08:30pm 13.5 8.7 5.7 59 3.7 S 20 30 11 16 1019.8 1019.7 0.0
16/08:00pm 14.1 8.9 5.7 57 4.0 SSE 22 32 12 17 1019.7 1019.6 0.0
16/07:30pm 14.8 9.3 5.9 55 4.3 S 24 32 13 17 1019.4 1019.3 0.0
16/07:00pm 15.4 9.1 5.6 52 4.7 S 28 41 15 22 1018.9 1018.8 0.0
16/06:30pm 15.9 8.7 5.2 49 5.1 S 32 43 17 23 1018.5 1018.4 0.0
16/06:00pm 17.3 10.5 4.9 44 5.9 S 30 39 16 21 1018.4 1018.3 0.0
16/05:30pm 17.8 11.3 4.7 42 6.3 S 28 39 15 21 1018.2 1018.1 0.0
16/05:00pm 18.0 11.9 4.9 42 6.3 S 26 37 14 20 1018.1 1018.0 0.0
16/04:30pm 18.6 12.5 4.8 40 6.6 SSE 26 39 14 21 1018.2 1018.1 0.0
16/04:00pm 19.3 12.9 5.4 40 6.8 S 28 41 15 22 1018.3 1018.2 0.0
16/03:30pm 19.2 12.5 5.6 41 6.7 S 30 39 16 21 1018.4 1018.3 0.0
16/03:00pm 19.2 12.5 5.6 41 6.7 SSW 30 43 16 23 1018.8 1018.7 0.0
16/02:30pm 19.2 12.0 6.0 42 6.5 S 33 44 18 24 1019.3 1019.2 0.0
16/02:00pm 18.8 13.4 6.3 44 6.2 SSE 24 39 13 21 1019.5 1019.4 0.0
16/01:30pm 17.9 12.8 5.8 45 5.9 SSW 22 35 12 19 1019.9 1019.8 0.0
16/01:00pm 17.8 12.2 7.0 49 5.4 S 26 37 14 20 1020.3 1020.2 0.0
16/12:30pm 18.7 13.9 5.5 42 6.4 S 20 32 11 17 1020.6 1020.5 0.0
16/12:00pm 16.4 11.9 6.0 50 5.0 S 19 28 10 15 1021.0 1020.9 0.0
16/11:30am 16.2 11.3 6.9 54 4.6 S 22 32 12 17 1021.0 1020.9 0.0
16/11:00am 15.6 11.0 6.6 55 4.4 S 20 32 11 17 1021.1 1021.0 0.0
16/10:30am 15.7 10.4 5.0 49 5.1 SSE 22 32 12 17 1021.1 1021.0 0.0
16/10:00am 15.5 9.1 5.1 50 4.9 SSE 28 39 15 21 1021.1 1021.0 0.0

Other Formats:

Comma delimited format used in spreadsheet applications
http://www.bom.gov.au/fwo/IDS60801/IDS60801.95663.axf

JavaScript Object Notation format (JSON) in row-major order
http://www.bom.gov.au/fwo/IDS60801/IDS60801.95663.json